トロムソ の空港の天気 - METARとTAF

トロムソ空港 ( ENTC / TOS ) - ノルウェー トロムス県トロムソ
飛行場実況気象(Metar)
観測時間04/27 06:50 CEST (04/27 04:50 UTC)
風向・風速北北東 2m/s
視程9000m
天気現象霧雨
全天の8割程度の雲 雲底高度 180m
気温1℃
湿度100%
気圧1000hPa
METARENTC 270450Z 03004KT 9000 DZ BKN006 01/01 Q1000 RMK WIND 2600FT 20003KT
過去の天気等 Google飛行場航空写真 Wunderground天気予報

過去48時間のMETAR

飛行場予報(TAF)
発表時間: -
27日6時 CEST ~ 28日2時 CEST に一時的に
天気現象雨霧雨
全天の8割程度の雲 雲底高度 240m
TAF AMD ENTC 2704/2724 02008KT 9999 FEW010 BKN020
TEMPO 2704/2724 RADZ BKN008